St Paul Downtown Holman Field
KSTP : now visible

Airfield :











YOU CAN JOIN US ON...

 
LOGIN :

Register | Disclaimer

   EN    FR    IT 

 









Legend :    VFR   Marginal VFR   IFR   Intensive IFR   Very Intensive IFR
Visi :
Ceiling :
>= 8 km
>= 3000ft
5 to 8 km
1000 to 3000 ft
1500m to 5 km
500 to 1000 ft
800 to 1500m
200 to 500 ft
< 800m
< 200 ft
Symbols :   Thunderstorms  Fog  Heavy snow  Heavy precipitations  Wind > 20 kt







- Airport Elevation : 705 ft
- IATA code : STP


KSTP - St Paul Downtown Holman Field

CURRENT METAR :
  • 181053Z AUTO 17011G22KT 10SM -RA OVC060 22/19 A2991 RMK AO2 LTG DSNT SW-N RAB45 SLP119 P0000 T02220194

EXPIRED METARs :
  • 180953Z AUTO 16010KT 10SM CLR 22/19 A2987 RMK AO2 SLP106 T02170189
  • 180853Z AUTO 15009KT 10SM CLR 21/19 A2987 RMK AO2 SLP107 T02110189 58017

Expired Forecast.
No reported NOTAMs for that airfield.



MET'MAP, your aeronautical weather chart ! - Copyright ORBIFLY December 2007 - Disclaimer

ORBIFLY MET'MAP TEAM :

Programming & Development : Alexandra Zaïnal
Concept & Development : Baudouin d'Aumeries
Co-Development & Prog : Marc-Olivier Méhu
Technical & hardware support : Manuel Goepfert

Contact : metmap@orbifly.com




SOURCES & CREDITS :

   NOAA       Earth
Advisory